Time;durP1;ratioP1;P1;durP2;ratioP2;P2;SDS_P1;SDS_P2;PMS_P1;PMS_P2;Temp;Humidity;BMP_temperature;BMP_pressure;BME280_temperature;BME280_humidity;BME280_pressure;Samples;Min_cycle;Max_cycle;Signal;HPM_P1;HPM_P2
2023/07/12 00:04:09;;;;;;;;;;;;;;;;;;2323365;29;258356282;-92
2023/07/12 00:11:40;;;;;;;;;3.50;3.50;;;;;;;;2;234068297;234068297;-91
2023/07/12 00:18:10;;;;;;;;;0.50;0.50;;;;;;;;2;278722580;278722580;-92
2023/07/12 00:25:41;;;;;;;;;0.00;0.00;;;;;;;;2;233354259;233354259;-91
2023/07/12 00:34:38;;;;;;;;;2.00;2.00;;;;;;;;2;276115089;276115089;-91
2023/07/12 00:41:25;;;;;;;;;0.00;0.00;;;;;;;;2;190318294;190318294;-91
2023/07/12 00:44:04;;;;;;;;;0.50;0.50;;;;;;;;2;155944478;155944478;-91
2023/07/12 00:46:38;;;;;;;;;1.00;1.00;;;;;;;;4807990;29;28371;-91
2023/07/12 00:49:03;;;;;;;;;1.00;1.00;;;;;;;;4794446;29;28374;-92
2023/07/12 00:51:29;;;;;;;;;1.67;1.67;;;;;;;;4794044;29;29772;-92
2023/07/12 00:53:54;;;;;;;;;1.00;1.00;;;;;;;;4810667;29;28303;-92
2023/07/12 00:56:20;;;;;;;;;1.00;1.00;;;;;;;;4810722;29;28280;-92
2023/07/12 00:58:48;;;;;;;;;0.33;0.33;;;;;;;;4794223;29;28307;-91
2023/07/12 01:01:14;;;;;;;;;0.67;0.00;;;;;;;;4794127;29;28468;-92
2023/07/12 01:03:40;;;;;;;;;1.67;1.67;;;;;;;;4794239;29;29606;-92
2023/07/12 01:06:08;;;;;;;;;1.00;1.00;;;;;;;;4794286;29;28473;-92
2023/07/12 01:08:34;;;;;;;;;0.33;0.33;;;;;;;;4810312;29;28562;-92
2023/07/12 01:11:01;;;;;;;;;2.33;1.67;;;;;;;;4810368;29;29003;-92
2023/07/12 01:13:27;;;;;;;;;0.00;0.00;;;;;;;;4794026;29;28875;-91
2023/07/12 01:15:52;;;;;;;;;2.00;2.00;;;;;;;;4810505;29;28253;-91
2023/07/12 01:18:19;;;;;;;;;1.00;1.00;;;;;;;;4810515;29;28302;-91
2023/07/12 01:20:45;;;;;;;;;2.00;2.00;;;;;;;;4810395;29;28507;-92
2023/07/12 01:23:10;;;;;;;;;2.00;2.00;;;;;;;;4810012;29;28351;-92
2023/07/12 01:25:39;;;;;;;;;0.00;0.00;;;;;;;;4810375;29;28455;-91
2023/07/12 01:28:04;;;;;;;;;1.33;1.33;;;;;;;;4810384;29;28407;-92
2023/07/12 01:30:30;;;;;;;;;1.00;1.00;;;;;;;;4793786;29;28622;-92
2023/07/12 01:32:56;;;;;;;;;1.00;1.00;;;;;;;;4810169;29;28250;-92
2023/07/12 01:35:21;;;;;;;;;1.00;1.00;;;;;;;;4810363;29;28527;-91
2023/07/12 01:37:46;;;;;;;;;4.00;3.00;;;;;;;;4793601;29;28319;-91
2023/07/12 01:40:12;;;;;;;;;2.00;2.00;;;;;;;;4810023;29;29203;-91
2023/07/12 01:42:37;;;;;;;;;1.00;1.00;;;;;;;;4793677;29;28243;-91
2023/07/12 01:45:03;;;;;;;;;1.00;1.00;;;;;;;;4809991;29;28251;-91
2023/07/12 01:47:29;;;;;;;;;1.33;1.33;;;;;;;;4793848;29;28440;-91
2023/07/12 01:49:54;;;;;;;;;2.00;2.00;;;;;;;;4792930;29;31139;-92
2023/07/12 01:52:19;;;;;;;;;2.00;1.67;;;;;;;;4793362;29;28787;-92
2023/07/12 01:54:45;;;;;;;;;1.00;1.00;;;;;;;;4793309;29;28516;-92
2023/07/12 01:57:10;;;;;;;;;1.00;1.00;;;;;;;;4793583;29;28549;-92
2023/07/12 01:59:35;;;;;;;;;1.00;1.00;;;;;;;;4793318;29;30697;-91
2023/07/12 02:02:00;;;;;;;;;2.67;2.67;;;;;;;;4793520;29;28540;-92
2023/07/12 02:04:26;;;;;;;;;2.00;2.00;;;;;;;;4809835;29;28323;-91
2023/07/12 02:06:51;;;;;;;;;3.00;3.00;;;;;;;;4793337;29;28555;-91
2023/07/12 02:09:16;;;;;;;;;1.67;1.33;;;;;;;;4809401;29;28432;-91
2023/07/12 02:11:41;;;;;;;;;2.00;2.00;;;;;;;;4809771;29;28483;-91
2023/07/12 02:14:07;;;;;;;;;1.00;1.00;;;;;;;;4809550;29;29788;-92
2023/07/12 02:16:32;;;;;;;;;0.00;0.00;;;;;;;;4809941;29;28416;-92
2023/07/12 02:18:57;;;;;;;;;0.00;0.00;;;;;;;;4809338;29;28489;-92
2023/07/12 02:21:22;;;;;;;;;2.00;2.00;;;;;;;;4809504;29;28397;-91
2023/07/12 02:23:48;;;;;;;;;1.67;1.67;;;;;;;;4809139;29;28625;-91
2023/07/12 02:26:13;;;;;;;;;2.00;2.00;;;;;;;;4809763;29;28535;-91
2023/07/12 02:28:38;;;;;;;;;2.67;2.67;;;;;;;;4792922;29;29802;-91
2023/07/12 02:31:13;;;;;;;;;2.00;2.00;;;;;;;;4809702;29;28439;-91
2023/07/12 02:33:38;;;;;;;;;4.00;3.00;;;;;;;;4809300;29;28399;-91
2023/07/12 02:36:04;;;;;;;;;2.33;2.33;;;;;;;;4793056;29;28287;-91
2023/07/12 02:38:29;;;;;;;;;1.33;1.33;;;;;;;;4808711;29;29303;-91
2023/07/12 02:40:54;;;;;;;;;2.33;2.33;;;;;;;;4792832;29;29701;-91
2023/07/12 02:43:19;;;;;;;;;1.00;1.00;;;;;;;;4809091;29;28315;-92
2023/07/12 02:45:48;;;;;;;;;2.00;2.00;;;;;;;;4793207;29;28536;-92
2023/07/12 02:48:13;;;;;;;;;3.00;3.00;;;;;;;;4808845;29;28360;-91
2023/07/12 02:50:38;;;;;;;;;4.00;3.00;;;;;;;;4792966;29;29297;-91
2023/07/12 02:53:13;;;;;;;;;2.00;2.00;;;;;;;;4808746;29;28353;-91
2023/07/12 02:55:38;;;;;;;;;2.00;2.00;;;;;;;;4792880;29;28962;-91
2023/07/12 02:58:03;;;;;;;;;3.00;3.00;;;;;;;;4808828;29;28380;-91
2023/07/12 03:00:28;;;;;;;;;3.00;1.00;;;;;;;;4808227;29;28486;-92
2023/07/12 03:02:54;;;;;;;;;1.00;1.00;;;;;;;;4792737;29;28487;-91
2023/07/12 03:05:19;;;;;;;;;4.00;3.00;;;;;;;;4809254;29;28572;-91
2023/07/12 03:07:44;;;;;;;;;2.00;2.00;;;;;;;;4808388;29;28457;-91
2023/07/12 03:10:09;;;;;;;;;1.33;1.33;;;;;;;;4792336;29;28932;-91
2023/07/12 03:12:35;;;;;;;;;2.00;2.00;;;;;;;;4792339;29;28354;-91
2023/07/12 03:15:00;;;;;;;;;2.67;2.67;;;;;;;;4809009;29;28493;-91
2023/07/12 03:17:25;;;;;;;;;2.00;2.00;;;;;;;;4808643;29;29303;-91
2023/07/12 03:19:50;;;;;;;;;1.33;1.33;;;;;;;;4808770;29;28443;-92
2023/07/12 03:22:16;;;;;;;;;1.33;1.33;;;;;;;;4808451;29;28520;-91
2023/07/12 03:24:41;;;;;;;;;3.00;2.00;;;;;;;;4808714;29;28407;-91
2023/07/12 03:27:06;;;;;;;;;2.00;2.00;;;;;;;;4808539;29;28505;-91
2023/07/12 03:29:31;;;;;;;;;1.33;1.33;;;;;;;;4808701;29;28391;-92
2023/07/12 03:31:57;;;;;;;;;1.00;1.00;;;;;;;;4808671;29;28538;-91
2023/07/12 03:34:22;;;;;;;;;1.00;1.00;;;;;;;;4792300;29;28505;-91
2023/07/12 03:36:47;;;;;;;;;2.33;2.33;;;;;;;;4791710;29;30019;-92
2023/07/12 03:39:12;;;;;;;;;2.00;2.00;;;;;;;;4808511;29;28443;-92
2023/07/12 03:41:38;;;;;;;;;3.00;3.00;;;;;;;;4792001;29;28454;-91
2023/07/12 03:44:03;;;;;;;;;2.67;2.67;;;;;;;;4808723;29;28324;-91
2023/07/12 03:46:28;;;;;;;;;3.00;3.00;;;;;;;;4808482;29;28432;-91
2023/07/12 03:48:53;;;;;;;;;3.67;3.00;;;;;;;;4808448;29;28459;-91
2023/07/12 03:51:22;;;;;;;;;3.00;3.00;;;;;;;;4808361;29;28632;-91
2023/07/12 03:53:47;;;;;;;;;1.00;1.00;;;;;;;;4808344;29;28337;-91
2023/07/12 03:56:13;;;;;;;;;2.33;2.33;;;;;;;;4791801;29;31261;-91
2023/07/12 03:58:39;;;;;;;;;1.00;1.00;;;;;;;;4808223;29;28384;-91
2023/07/12 04:01:05;;;;;;;;;2.00;2.00;;;;;;;;4791826;29;28515;-91
2023/07/12 04:03:31;;;;;;;;;1.00;1.00;;;;;;;;4792089;29;28542;-91
2023/07/12 04:05:56;;;;;;;;;2.33;2.33;;;;;;;;4791646;29;28380;-92
2023/07/12 04:08:21;;;;;;;;;3.00;3.00;;;;;;;;4808029;29;28499;-91
2023/07/12 04:10:53;;;;;;;;;3.00;3.00;;;;;;;;4807935;29;28305;-92
2023/07/12 04:13:19;;;;;;;;;3.00;3.00;;;;;;;;4811665;29;28550;-92
2023/07/12 04:15:44;;;;;;;;;4.00;4.00;;;;;;;;4794678;29;30093;-91
2023/07/12 04:18:10;;;;;;;;;4.00;4.00;;;;;;;;4811310;29;28323;-92
2023/07/12 04:20:38;;;;;;;;;2.00;2.00;;;;;;;;4794939;29;28325;-91
2023/07/12 04:23:04;;;;;;;;;5.00;3.00;;;;;;;;4811022;29;28459;-92
2023/07/12 04:25:29;;;;;;;;;2.67;2.33;;;;;;;;4794489;29;30614;-91
2023/07/12 04:27:54;;;;;;;;;2.33;2.33;;;;;;;;4811202;29;28273;-91
2023/07/12 04:30:20;;;;;;;;;2.00;2.00;;;;;;;;4811182;29;28364;-91
2023/07/12 04:32:47;;;;;;;;;2.00;2.00;;;;;;;;4811216;29;28266;-91
2023/07/12 04:35:12;;;;;;;;;1.33;1.33;;;;;;;;4794621;29;28605;-91
2023/07/12 04:37:37;;;;;;;;;2.00;2.00;;;;;;;;4794427;29;28533;-91
2023/07/12 04:40:04;;;;;;;;;3.00;3.00;;;;;;;;4810916;29;28253;-91
2023/07/12 04:42:29;;;;;;;;;3.00;3.00;;;;;;;;4811205;29;28550;-91
2023/07/12 04:44:54;;;;;;;;;1.67;1.33;;;;;;;;4810800;29;29361;-91
2023/07/12 04:47:19;;;;;;;;;3.67;3.00;;;;;;;;4810971;29;28364;-91
2023/07/12 04:49:45;;;;;;;;;2.67;2.67;;;;;;;;4794507;29;28469;-92
2023/07/12 04:52:11;;;;;;;;;3.00;3.00;;;;;;;;4810754;29;28423;-91
2023/07/12 04:54:38;;;;;;;;;1.67;1.67;;;;;;;;4810564;29;28353;-91
2023/07/12 04:57:04;;;;;;;;;3.67;2.33;;;;;;;;4810615;29;28407;-91
2023/07/12 04:59:29;;;;;;;;;2.00;2.00;;;;;;;;4794269;29;28460;-91
2023/07/12 05:01:54;;;;;;;;;3.00;2.00;;;;;;;;4810905;29;28266;-91
2023/07/12 05:04:19;;;;;;;;;1.67;1.67;;;;;;;;4810583;29;28238;-91
2023/07/12 05:06:45;;;;;;;;;1.33;1.33;;;;;;;;4810478;29;28335;-92
2023/07/12 05:09:10;;;;;;;;;3.00;1.33;;;;;;;;4794057;29;28266;-92
2023/07/12 05:11:36;;;;;;;;;2.00;2.00;;;;;;;;4810738;29;28329;-92
2023/07/12 05:14:01;;;;;;;;;2.33;2.33;;;;;;;;4810388;29;29264;-91
2023/07/12 05:16:26;;;;;;;;;2.33;2.33;;;;;;;;4810723;29;28310;-93
2023/07/12 05:18:52;;;;;;;;;4.00;2.00;;;;;;;;4810326;29;28225;-91
2023/07/12 05:21:18;;;;;;;;;2.67;2.67;;;;;;;;4794054;29;28539;-91
2023/07/12 05:23:43;;;;;;;;;3.33;2.00;;;;;;;;4792964;29;29576;-92
2023/07/12 05:26:08;;;;;;;;;3.00;3.00;;;;;;;;4810583;29;28393;-91
2023/07/12 05:28:34;;;;;;;;;1.33;1.33;;;;;;;;4793980;29;28330;-92
2023/07/12 05:31:04;;;;;;;;;2.00;2.00;;;;;;;;4810724;29;28482;-91
2023/07/12 05:33:29;;;;;;;;;3.67;3.67;;;;;;;;4810055;29;29410;-92
2023/07/12 05:35:54;;;;;;;;;2.00;1.67;;;;;;;;4793867;29;28303;-91
2023/07/12 05:38:20;;;;;;;;;2.67;2.67;;;;;;;;4809859;29;28238;-91
2023/07/12 05:40:45;;;;;;;;;2.33;2.33;;;;;;;;4810305;29;28255;-91
2023/07/12 05:43:13;;;;;;;;;4.00;4.00;;;;;;;;4793542;29;29906;-92
2023/07/12 05:45:38;;;;;;;;;2.00;2.00;;;;;;;;4793869;29;29621;-91
2023/07/12 05:48:03;;;;;;;;;2.00;2.00;;;;;;;;4809953;29;28341;-91
2023/07/12 05:50:29;;;;;;;;;2.67;1.67;;;;;;;;4810239;29;28243;-91
2023/07/12 05:52:54;;;;;;;;;2.33;2.33;;;;;;;;4809494;29;28472;-91
2023/07/12 05:55:19;;;;;;;;;2.00;2.00;;;;;;;;4810075;29;28385;-91
2023/07/12 05:57:45;;;;;;;;;2.33;2.33;;;;;;;;4793652;29;28563;-91
2023/07/12 06:00:11;;;;;;;;;2.67;2.67;;;;;;;;4793643;29;28251;-91
2023/07/12 06:02:39;;;;;;;;;2.00;2.00;;;;;;;;4793496;29;29859;-91
2023/07/12 06:05:05;;;;;;;;;2.00;2.00;;;;;;;;4809812;29;28254;-92
2023/07/12 06:07:31;;;;;;;;;4.00;3.00;;;;;;;;4809437;29;28361;-92
2023/07/12 06:09:56;;;;;;;;;3.00;2.67;;;;;;;;4809759;29;28360;-91
2023/07/12 06:12:23;;;;;;;;;3.67;3.00;;;;;;;;4809612;29;28358;-91
2023/07/12 06:14:48;;;;;;;;;2.67;2.67;;;;;;;;4793316;29;29319;-91
2023/07/12 06:17:13;;;;;;;;;3.00;3.00;;;;;;;;4809475;29;28262;-91
2023/07/12 06:19:39;;;;;;;;;2.33;2.33;;;;;;;;4809745;29;28562;-92
2023/07/12 06:22:04;;;;;;;;;3.00;2.00;;;;;;;;4792740;29;28309;-92
2023/07/12 06:24:29;;;;;;;;;5.33;4.00;;;;;;;;4792989;29;29164;-91
2023/07/12 06:26:55;;;;;;;;;3.00;3.00;;;;;;;;4793098;29;28533;-91
2023/07/12 06:29:20;;;;;;;;;4.33;3.00;;;;;;;;4793148;29;28459;-92
2023/07/12 06:31:46;;;;;;;;;2.33;2.33;;;;;;;;4809268;29;28538;-92
2023/07/12 06:34:12;;;;;;;;;2.00;2.00;;;;;;;;4809186;29;28545;-92
2023/07/12 06:36:38;;;;;;;;;2.33;2.00;;;;;;;;4791956;29;28325;-92
2023/07/12 06:39:03;;;;;;;;;2.33;2.00;;;;;;;;4809417;29;28682;-92
2023/07/12 06:41:28;;;;;;;;;3.00;3.00;;;;;;;;4809076;29;28432;-92
2023/07/12 06:43:54;;;;;;;;;1.67;1.67;;;;;;;;4793021;29;29456;-91
2023/07/12 06:46:20;;;;;;;;;2.67;2.67;;;;;;;;4792758;29;28327;-92
2023/07/12 06:48:45;;;;;;;;;3.00;2.00;;;;;;;;4809285;29;28506;-92
2023/07/12 06:51:10;;;;;;;;;3.33;2.00;;;;;;;;4808723;29;28431;-91
2023/07/12 06:53:38;;;;;;;;;2.00;2.00;;;;;;;;4792539;29;28361;-92
2023/07/12 06:56:04;;;;;;;;;2.00;2.00;;;;;;;;4809057;29;28495;-92
2023/07/12 06:58:29;;;;;;;;;3.00;3.00;;;;;;;;4792664;29;28258;-92
2023/07/12 07:00:54;;;;;;;;;3.00;2.00;;;;;;;;4792547;29;30803;-92
2023/07/12 07:03:19;;;;;;;;;2.00;2.00;;;;;;;;4792575;29;28467;-92
2023/07/12 07:05:46;;;;;;;;;2.00;2.00;;;;;;;;4792562;29;28423;-92
2023/07/12 07:08:13;;;;;;;;;2.00;2.00;;;;;;;;4808886;29;28541;-92
2023/07/12 07:10:38;;;;;;;;;1.67;1.67;;;;;;;;4792158;29;28448;-91
2023/07/12 07:13:03;;;;;;;;;1.00;1.00;;;;;;;;4792430;29;28428;-91
2023/07/12 07:15:29;;;;;;;;;3.00;3.00;;;;;;;;4792474;29;28416;-92
2023/07/12 07:17:54;;;;;;;;;2.00;2.00;;;;;;;;4808937;29;28510;-92
2023/07/12 07:20:19;;;;;;;;;2.00;2.00;;;;;;;;4792149;29;28421;-92
2023/07/12 07:22:44;;;;;;;;;0.67;0.67;;;;;;;;4792180;29;28416;-92
2023/07/12 07:25:11;;;;;;;;;2.00;2.00;;;;;;;;4808477;29;28626;-91
2023/07/12 07:27:36;;;;;;;;;3.00;3.00;;;;;;;;4792464;29;28590;-92
2023/07/12 07:30:02;;;;;;;;;2.00;2.00;;;;;;;;4808506;29;28325;-91
2023/07/12 07:32:27;;;;;;;;;2.00;2.00;;;;;;;;4792483;29;28434;-92
2023/07/12 07:34:53;;;;;;;;;1.33;1.33;;;;;;;;4808679;29;28368;-91
2023/07/12 07:37:18;;;;;;;;;0.00;0.00;;;;;;;;4792237;29;28337;-91
2023/07/12 07:39:43;;;;;;;;;1.00;1.00;;;;;;;;4792010;29;28572;-92
2023/07/12 07:42:08;;;;;;;;;1.67;1.67;;;;;;;;4808498;29;28246;-92
2023/07/12 07:44:34;;;;;;;;;1.00;1.00;;;;;;;;4808520;29;28320;-92
2023/07/12 07:46:59;;;;;;;;;0.00;0.00;;;;;;;;4792022;29;28340;-91
2023/07/12 07:49:25;;;;;;;;;0.00;0.00;;;;;;;;4808350;29;29428;-92
2023/07/12 07:51:51;;;;;;;;;1.67;1.67;;;;;;;;4808265;29;28429;-92
2023/07/12 07:54:16;;;;;;;;;0.67;0.67;;;;;;;;4791821;29;28493;-92
2023/07/12 07:56:41;;;;;;;;;1.00;1.00;;;;;;;;4808486;29;28403;-92
2023/07/12 07:59:07;;;;;;;;;1.00;1.00;;;;;;;;4808267;29;28563;-92
2023/07/12 08:01:32;;;;;;;;;0.00;0.00;;;;;;;;4808451;29;28352;-92
2023/07/12 08:03:57;;;;;;;;;0.33;0.33;;;;;;;;4808278;29;28474;-92
2023/07/12 08:06:23;;;;;;;;;0.00;0.00;;;;;;;;4808228;29;28363;-92
2023/07/12 08:08:48;;;;;;;;;1.00;1.00;;;;;;;;4807975;29;28552;-92
2023/07/12 08:11:14;;;;;;;;;1.00;1.00;;;;;;;;4791835;29;28471;-92
2023/07/12 08:13:39;;;;;;;;;2.67;1.00;;;;;;;;4808053;29;28551;-92
2023/07/12 08:16:04;;;;;;;;;0.00;0.00;;;;;;;;4792001;29;28474;-92
2023/07/12 08:18:32;;;;;;;;;0.67;0.00;;;;;;;;4791444;29;30088;-92
2023/07/12 08:20:57;;;;;;;;;0.00;0.00;;;;;;;;4791877;29;28466;-92
2023/07/12 08:23:23;;;;;;;;;1.00;1.00;;;;;;;;4807698;29;28407;-92
2023/07/12 08:25:49;;;;;;;;;0.00;0.00;;;;;;;;4822010;29;28335;-92
2023/07/12 08:28:14;;;;;;;;;0.00;0.00;;;;;;;;4807908;29;28500;-92
2023/07/12 08:30:40;;;;;;;;;1.00;1.00;;;;;;;;4808060;29;28331;-92
2023/07/12 08:33:06;;;;;;;;;1.00;1.00;;;;;;;;4807881;29;28560;-92
2023/07/12 08:35:31;;;;;;;;;0.00;0.00;;;;;;;;4791809;29;28578;-92
2023/07/12 08:37:57;;;;;;;;;1.00;1.00;;;;;;;;4791163;29;29777;-92
2023/07/12 08:40:23;;;;;;;;;3.67;1.00;;;;;;;;4807710;29;28400;-92
2023/07/12 08:42:48;;;;;;;;;0.67;0.67;;;;;;;;4791551;29;28437;-92
2023/07/12 08:45:14;;;;;;;;;3.00;2.00;;;;;;;;4791568;29;28506;-92
2023/07/12 08:47:40;;;;;;;;;0.00;0.00;;;;;;;;4807677;29;28478;-92
2023/07/12 08:50:13;;;;;;;;;1.00;0.67;;;;;;;;4807571;29;28349;-92
2023/07/12 08:52:40;;;;;;;;;1.00;1.00;;;;;;;;4791153;29;28353;-92
2023/07/12 08:55:11;;;;;;;;;1.00;1.00;;;;;;;;4807791;29;28312;-92
2023/07/12 08:57:38;;;;;;;;;0.00;0.00;;;;;;;;4807437;29;28554;-92
2023/07/12 09:00:05;;;;;;;;;0.00;0.00;;;;;;;;4810471;29;28536;-92
2023/07/12 09:02:31;;;;;;;;;0.00;0.00;;;;;;;;4794296;29;28508;-92
2023/07/12 09:04:57;;;;;;;;;0.00;0.00;;;;;;;;4811133;29;28262;-92
2023/07/12 09:07:33;;;;;;;;;1.00;1.00;;;;;;;;4793872;29;30837;-92
2023/07/12 09:09:59;;;;;;;;;0.00;0.00;;;;;;;;4810693;29;28315;-92
2023/07/12 09:12:27;;;;;;;;;0.00;0.00;;;;;;;;4794332;29;28270;-92
2023/07/12 09:15:03;;;;;;;;;1.00;1.00;;;;;;;;4810727;29;28490;-92
2023/07/12 09:17:30;;;;;;;;;1.00;0.00;;;;;;;;4810346;29;28464;-92
2023/07/12 09:19:56;;;;;;;;;0.33;0.33;;;;;;;;4810559;29;28402;-92
2023/07/12 09:22:22;;;;;;;;;1.00;1.00;;;;;;;;4810181;29;28309;-92
2023/07/12 09:24:55;;;;;;;;;0.33;0.33;;;;;;;;4794113;29;28270;-92
2023/07/12 09:27:22;;;;;;;;;0.00;0.00;;;;;;;;4794011;29;30374;-92
2023/07/12 09:29:48;;;;;;;;;0.00;0.00;;;;;;;;4793921;29;29649;-92
2023/07/12 09:32:24;;;;;;;;;1.00;1.00;;;;;;;;4794031;29;28364;-92
2023/07/12 09:34:50;;;;;;;;;1.00;1.00;;;;;;;;4793989;29;28613;-92
2023/07/12 09:37:19;;;;;;;;;1.00;1.00;;;;;;;;4809982;29;28363;-92
2023/07/12 09:39:55;;;;;;;;;0.00;0.00;;;;;;;;4810114;29;28335;-92
2023/07/12 09:42:20;;;;;;;;;0.00;0.00;;;;;;;;4819443;29;28269;-92
2023/07/12 09:44:47;;;;;;;;;0.67;0.67;;;;;;;;4813327;29;28482;-92
2023/07/12 09:47:18;;;;;;;;;0.00;0.00;;;;;;;;4810144;29;28498;-92
2023/07/12 09:50:00;;;;;;;;;0.00;0.00;;;;;;;;4793411;29;28671;-92
2023/07/12 09:52:30;;;;;;;;;0.00;0.00;;;;;;;;4809885;29;28577;-92
2023/07/12 09:55:03;;;;;;;;;0.00;0.00;;;;;;;;4793558;29;28375;-93
2023/07/12 09:57:47;;;;;;;;;0.00;0.00;;;;;;;;4809877;29;28744;-91
2023/07/12 10:00:31;;;;;;;;;0.33;0.33;;;;;;;;4809839;29;28451;-92
2023/07/12 10:03:10;;;;;;;;;0.00;0.00;;;;;;;;4809980;29;28352;-93
2023/07/12 10:05:36;;;;;;;;;0.00;0.00;;;;;;;;4809885;29;28485;-92
2023/07/12 10:08:02;;;;;;;;;0.00;0.00;;;;;;;;4809550;29;28230;-92
2023/07/12 10:10:27;;;;;;;;;0.00;0.00;;;;;;;;4809300;29;28320;-92
2023/07/12 10:13:05;;;;;;;;;0.00;0.00;;;;;;;;4809885;29;28479;-92
2023/07/12 10:15:33;;;;;;;;;1.00;1.00;;;;;;;;4793244;29;28960;-92
2023/07/12 10:17:58;;;;;;;;;0.67;0.67;;;;;;;;4793195;29;30078;-92
2023/07/12 10:20:27;;;;;;;;;0.00;0.00;;;;;;;;4809468;29;28448;-92
2023/07/12 10:22:53;;;;;;;;;0.00;0.00;;;;;;;;4793027;29;28381;-92
2023/07/12 10:25:24;;;;;;;;;0.00;0.00;;;;;;;;4793084;29;28329;-92
2023/07/12 10:27:55;;;;;;;;;0.00;0.00;;;;;;;;4793268;29;30148;-92
2023/07/12 10:30:23;;;;;;;;;0.00;0.00;;;;;;;;4809454;29;28361;-92
2023/07/12 10:33:07;;;;;;;;;0.00;0.00;;;;;;;;4793187;29;28368;-92
2023/07/12 10:35:42;;;;;;;;;1.00;1.00;;;;;;;;4793166;29;28992;-92
2023/07/12 10:38:15;;;;;;;;;0.00;0.00;;;;;;;;4792679;29;28956;-92
2023/07/12 10:40:49;;;;;;;;;0.00;0.00;;;;;;;;4792991;29;28329;-92
2023/07/12 10:43:31;;;;;;;;;1.00;1.00;;;;;;;;4809242;29;28341;-92
2023/07/12 10:45:58;;;;;;;;;0.00;0.00;;;;;;;;4791079;29;579957;-92
2023/07/12 10:48:27;;;;;;;;;0.00;0.00;;;;;;;;4778586;29;938734;-93
2023/07/12 10:50:56;;;;;;;;;0.00;0.00;;;;;;;;4189730;29;13507126;-92
2023/07/12 10:53:23;;;;;;;;;0.00;0.00;;;;;;;;4808901;29;28479;-92
2023/07/12 10:55:54;;;;;;;;;1.00;1.00;;;;;;;;4792614;29;28468;-92
2023/07/12 10:58:20;;;;;;;;;1.00;1.00;;;;;;;;4809124;29;28341;-92
2023/07/12 11:00:53;;;;;;;;;0.00;0.00;;;;;;;;3317624;29;32005210;-92
2023/07/12 11:03:20;;;;;;;;;0.33;0.33;;;;;;;;4809359;29;28317;-92
2023/07/12 11:14:43;;;;;;;;;0.00;0.00;;;;;;;;4486106;29;279081897;-92
2023/07/12 11:17:42;;;;;;;;;;;;;;;;;;2;178778410;178778410;-92
2023/07/12 11:20:08;;;;;;;;;1.00;1.00;;;;;;;;3784658;29;30451918;-92
2023/07/12 11:22:48;;;;;;;;;0.00;0.00;;;;;;;;4808104;29;28505;-92
2023/07/12 11:25:24;;;;;;;;;0.33;0.33;;;;;;;;4791999;29;28586;-92
2023/07/12 11:27:53;;;;;;;;;1.00;1.00;;;;;;;;4792362;29;28360;-92
2023/07/12 11:30:37;;;;;;;;;0.33;0.33;;;;;;;;4792366;29;28535;-92
2023/07/12 11:33:15;;;;;;;;;0.00;0.00;;;;;;;;4792399;29;28445;-93
2023/07/12 11:35:44;;;;;;;;;0.00;0.00;;;;;;;;4808681;29;28546;-92
2023/07/12 11:38:14;;;;;;;;;1.00;1.00;;;;;;;;4791795;29;28578;-92
2023/07/12 11:40:40;;;;;;;;;1.00;1.00;;;;;;;;4792144;29;28461;-92
2023/07/12 11:43:23;;;;;;;;;0.67;0.67;;;;;;;;4808379;29;28574;-92
2023/07/12 11:45:55;;;;;;;;;0.00;0.00;;;;;;;;4792180;29;30293;-92
2023/07/12 11:48:21;;;;;;;;;0.00;0.00;;;;;;;;4808164;29;28384;-92
2023/07/12 11:50:51;;;;;;;;;0.00;0.00;;;;;;;;4792155;29;28456;-92
2023/07/12 11:53:16;;;;;;;;;0.00;0.00;;;;;;;;4808355;29;28246;-92
2023/07/12 11:55:42;;;;;;;;;0.00;0.00;;;;;;;;4808295;29;28258;-92
2023/07/12 11:58:13;;;;;;;;;0.67;0.67;;;;;;;;4791844;29;28423;-93
2023/07/12 12:00:39;;;;;;;;;0.00;0.00;;;;;;;;4808404;29;28429;-92
2023/07/12 12:03:04;;;;;;;;;0.00;0.00;;;;;;;;4792014;29;28442;-93
2023/07/12 12:05:34;;;;;;;;;1.00;1.00;;;;;;;;4791784;29;28609;-92
2023/07/12 12:08:03;;;;;;;;;0.00;0.00;;;;;;;;4791624;29;28656;-92
2023/07/12 12:10:32;;;;;;;;;0.00;0.00;;;;;;;;4791608;29;28526;-92
2023/07/12 12:12:57;;;;;;;;;0.00;0.00;;;;;;;;4792104;29;28362;-92
2023/07/12 12:15:24;;;;;;;;;0.00;0.00;;;;;;;;4807959;29;28415;-92
2023/07/12 12:17:51;;;;;;;;;0.33;0.33;;;;;;;;4791759;29;28615;-92
2023/07/12 12:20:16;;;;;;;;;0.00;0.00;;;;;;;;4808103;29;28462;-92
2023/07/12 12:22:43;;;;;;;;;0.00;0.00;;;;;;;;4808069;29;28321;-92
2023/07/12 12:25:19;;;;;;;;;0.00;0.00;;;;;;;;4791246;29;30014;-93
2023/07/12 12:27:45;;;;;;;;;1.00;1.00;;;;;;;;4791720;29;28584;-92
2023/07/12 12:30:23;;;;;;;;;0.00;0.00;;;;;;;;4808065;29;28330;-92
2023/07/12 12:32:59;;;;;;;;;0.00;0.00;;;;;;;;4792902;29;28356;-93
2023/07/12 12:35:27;;;;;;;;;0.00;0.00;;;;;;;;4794611;29;29691;-92
2023/07/12 12:37:53;;;;;;;;;0.00;0.00;;;;;;;;4810793;29;28533;-93
2023/07/12 12:40:20;;;;;;;;;0.00;0.00;;;;;;;;4825051;29;28364;-92
2023/07/12 12:42:51;;;;;;;;;0.00;0.00;;;;;;;;4794728;29;28612;-92
2023/07/12 12:45:17;;;;;;;;;0.00;0.00;;;;;;;;4825021;29;30682;-92
2023/07/12 12:47:43;;;;;;;;;0.00;0.00;;;;;;;;4794358;29;29629;-93
2023/07/12 12:50:15;;;;;;;;;0.00;0.00;;;;;;;;4794465;29;28392;-93
2023/07/12 12:52:41;;;;;;;;;0.00;0.00;;;;;;;;4810669;29;28508;-92
2023/07/12 12:55:08;;;;;;;;;0.00;0.00;;;;;;;;4794278;29;29738;-92
2023/07/12 12:57:35;;;;;;;;;0.00;0.00;;;;;;;;4794233;29;28761;-92
2023/07/12 13:00:01;;;;;;;;;0.00;0.00;;;;;;;;4794492;29;28527;-92
2023/07/12 13:02:26;;;;;;;;;0.00;0.00;;;;;;;;4810983;29;28339;-92
2023/07/12 13:04:52;;;;;;;;;0.00;0.00;;;;;;;;4810796;29;29335;-93
2023/07/12 13:07:27;;;;;;;;;0.00;0.00;;;;;;;;4810404;29;28476;-93
2023/07/12 13:09:52;;;;;;;;;0.00;0.00;;;;;;;;4810610;29;28250;-93
2023/07/12 13:12:19;;;;;;;;;0.00;0.00;;;;;;;;4794475;29;28267;-92
2023/07/12 13:14:44;;;;;;;;;0.00;0.00;;;;;;;;4810601;29;28348;-93
2023/07/12 13:17:17;;;;;;;;;0.00;0.00;;;;;;;;4810404;29;28251;-93
2023/07/12 13:19:44;;;;;;;;;0.00;0.00;;;;;;;;4794303;29;28252;-93
2023/07/12 13:22:14;;;;;;;;;0.00;0.00;;;;;;;;4793869;29;28408;-93
2023/07/12 13:24:39;;;;;;;;;0.00;0.00;;;;;;;;4793773;29;30278;-93
2023/07/12 13:27:28;;;;;;;;;0.00;0.00;;;;;;;;4793942;29;28670;-92
2023/07/12 13:29:53;;;;;;;;;0.00;0.00;;;;;;;;4794247;29;28363;-92
2023/07/12 13:32:19;;;;;;;;;0.00;0.00;;;;;;;;4794202;29;28332;-92
2023/07/12 13:34:45;;;;;;;;;0.67;0.67;;;;;;;;4793770;29;29985;-93
2023/07/12 13:37:15;;;;;;;;;1.00;0.00;;;;;;;;4793626;29;28542;-92
2023/07/12 13:39:41;;;;;;;;;0.00;0.00;;;;;;;;4793906;29;28584;-92
2023/07/12 13:42:10;;;;;;;;;0.00;0.00;;;;;;;;4794016;29;28290;-93
2023/07/12 13:44:35;;;;;;;;;0.00;0.00;;;;;;;;4657358;29;3226913;-92
2023/07/12 13:47:00;;;;;;;;;0.00;0.00;;;;;;;;4810200;29;28369;-92
2023/07/12 13:49:26;;;;;;;;;0.00;0.00;;;;;;;;4810083;29;28663;-92
2023/07/12 13:51:51;;;;;;;;;0.33;0.33;;;;;;;;4793642;29;28571;-92
2023/07/12 13:54:16;;;;;;;;;0.00;0.00;;;;;;;;4665724;29;2752100;-92
2023/07/12 13:56:44;;;;;;;;;4.00;1.00;;;;;;;;4809939;29;28345;-93
2023/07/12 13:59:09;;;;;;;;;0.00;0.00;;;;;;;;4793665;29;28475;-92
2023/07/12 14:01:35;;;;;;;;;0.00;0.00;;;;;;;;4810136;29;28647;-92
2023/07/12 14:04:00;;;;;;;;;0.00;0.00;;;;;;;;4793457;29;29596;-93
2023/07/12 14:06:26;;;;;;;;;0.00;0.00;;;;;;;;4793326;29;28578;-92
2023/07/12 14:08:51;;;;;;;;;0.00;0.00;;;;;;;;4809677;29;28600;-92
2023/07/12 14:11:17;;;;;;;;;0.00;0.00;;;;;;;;4810089;29;28317;-92
2023/07/12 14:13:42;;;;;;;;;0.00;0.00;;;;;;;;4809719;29;29500;-92
2023/07/12 14:16:07;;;;;;;;;0.00;0.00;;;;;;;;4809864;29;28490;-92
2023/07/12 14:18:32;;;;;;;;;0.00;0.00;;;;;;;;4793179;29;28262;-92
2023/07/12 14:20:58;;;;;;;;;0.00;0.00;;;;;;;;4793232;29;28311;-93
2023/07/12 14:23:25;;;;;;;;;0.00;0.00;;;;;;;;4793017;29;30111;-92
2023/07/12 14:25:50;;;;;;;;;0.00;0.00;;;;;;;;4793188;29;29729;-92
2023/07/12 14:28:16;;;;;;;;;0.00;0.00;;;;;;;;4793230;29;28481;-92
2023/07/12 14:30:41;;;;;;;;;0.00;0.00;;;;;;;;4809736;29;28588;-92
2023/07/12 14:33:30;;;;;;;;;0.00;0.00;;;;;;;;4809422;29;28517;-92
2023/07/12 14:35:57;;;;;;;;;0.00;0.00;;;;;;;;4790039;29;28576;-92
2023/07/12 14:38:22;;;;;;;;;0.00;0.00;;;;;;;;4792891;29;28329;-92
2023/07/12 14:40:48;;;;;;;;;0.00;0.00;;;;;;;;4793036;29;28376;-92
2023/07/12 14:43:13;;;;;;;;;0.00;0.00;;;;;;;;4792880;29;29775;-92
2023/07/12 14:45:39;;;;;;;;;0.00;0.00;;;;;;;;4793006;29;28748;-92
2023/07/12 14:48:08;;;;;;;;;0.00;0.00;;;;;;;;4792938;29;28372;-92
2023/07/12 14:50:33;;;;;;;;;0.00;0.00;;;;;;;;4793034;29;28542;-92
2023/07/12 14:52:58;;;;;;;;;0.00;0.00;;;;;;;;4808859;29;29299;-93
2023/07/12 14:55:24;;;;;;;;;0.00;0.00;;;;;;;;4792204;29;28647;-92
2023/07/12 14:57:49;;;;;;;;;1.00;1.00;;;;;;;;4792168;29;28501;-92
2023/07/12 15:00:18;;;;;;;;;0.00;0.00;;;;;;;;4809264;29;28503;-93
2023/07/12 15:02:47;;;;;;;;;0.00;0.00;;;;;;;;4792506;29;29880;-93
2023/07/12 15:05:12;;;;;;;;;1.00;1.00;;;;;;;;4792690;29;28578;-92
2023/07/12 15:07:41;;;;;;;;;0.00;0.00;;;;;;;;4808699;29;28443;-93
2023/07/12 15:10:08;;;;;;;;;0.00;0.00;;;;;;;;4792666;29;28487;-92
2023/07/12 15:12:35;;;;;;;;;1.00;1.00;;;;;;;;4808672;29;29403;-92
2023/07/12 15:15:09;;;;;;;;;0.00;0.00;;;;;;;;4792519;29;28522;-92
2023/07/12 15:17:38;;;;;;;;;0.00;0.00;;;;;;;;4792436;29;28294;-92